Terminal Aerodrome Forecast
Issued by NWS

Home | Current Version | Previous Version | Text Only | Print | Product List | Glossary On
Versions: 1 2 3 4 5 6 7 8 9 10 11 12 13 14
000
FTAK31 PAFA 061720
TAFAMC
TAF
PAMC 061720Z 0618/0718 VRB05KT P6SM SCT050 BKN100
     FM062100 VRB05KT P6SM VCSH BKN050 BKN100
     FM070300 VRB05KT P6SM VCSH BKN050 BKN100
     FM070600 VRB05KT P6SM SCT035 BKN050 BKN100=

USA.gov is the U.S. government's official web portal to all federal, state and local government web resources and services.